CheckWX is a tool to help pilots better visualize weather data.  It is not intended as a substitute for an official pre-flight weather briefing.

17:32:02 UTC

KACB METAR
Antrim County Airport
Bellaire, Michigan, USA
Current

16 mins ago

KACB 241716Z AUTO 00000KT 10SM CLR 05/M02 A3009 RMK AO2 T00451025
Observed
Mar-24 @ 17:16 UTC
Visibility
10 SM
Flight Rules
VFR
Cloud Levels
  • Clear skies
Temperature
C / 41°F
Dewpoint
-3°C / 27°F
Humidity
57%
Altimeter
30.09" Hg
Pressure
1018.92 hPa
Previous

37 mins ago

KACB 241655Z AUTO 00000KT 10SM CLR 05/M02 A3010 RMK AO2 T00461024
Observed
Mar-24 @ 16:55 UTC
Visibility
10 SM
Flight Rules
VFR
Cloud Levels
  • Clear skies
Temperature
C / 41°F
Dewpoint
-2°C / 28°F
Humidity
61%
Altimeter
30.1" Hg
Pressure
1019.32 hPa
Previous

57 mins ago

KACB 241635Z AUTO 34005KT 10SM CLR 04/M02 A3010 RMK AO2 T00431021
Observed
Mar-24 @ 16:35 UTC
Wind
  • 340° at 5 KTS
Visibility
10 SM
Flight Rules
VFR
Cloud Levels
  • Clear skies
Temperature
C / 39°F
Dewpoint
-2°C / 28°F
Humidity
65%
Altimeter
30.1" Hg
Pressure
1019.32 hPa